Waterville Valley, NH

5:06 PM EST on November 27, 2014 (GMT -0500)
Mount Weetamoo | Change Station
CLOSE
Current Station
Personal Weather Station
Location: Campton, NH
Elevation: 1801 ft
Nearby Weather Stations

Elev 1801 ft 43.86 °N, 71.60 °W | Updated 14 minutes ago

Mostly Cloudy
Mostly Cloudy
22.6 °F
Feels Like 23 °F
N
0.0
Wind Variable Wind from WSW
Gusts 4.0 mph

Today
High -- | Low -- °F
--% Chance of Precip.
Yesterday
High -- | Low -- °F
Precip. -- in
6:55 AM 4:11 PM
Waxing Crescent, 33% visible
Pressure 29.97 in
Visibility 10.0 miles
Clouds Mostly Cloudy 2700 ft
Windchill 23 °F
Dew Point 20 °F
Humidity 90%
Rainfall 0.00 in
Snow Depth Not available.
UV 0 out of 12
Pollen .10 out of 12
Air Quality Not available.
Flu Activity Not available.
METAR K1P1 272215Z AUTO 28005KT 10SM BKN027 M02/M04 A2997 RMK AO2 T10221045

More Conditions Fewer Conditions

Pressure 29.97 in
Visibility 10.0 miles
Clouds Mostly Cloudy 2700 ft
Windchill 23 °F
Dew Point 20 °F
Humidity 90%
Rainfall 0.00 in
Snow Depth Not available.
UV 0 out of 12
Pollen .10 out of 12
Air Quality Not available.
Flu Activity Not available.
METAR K1P1 272215Z AUTO 28005KT 10SM BKN027 M02/M04 A2997 RMK AO2 T10221045

More Conditions Fewer Conditions

10-Day Weather Forecast

Almanac

Astronomy

Nov. 27, 2014 Rise Set
Actual Time
Civil Twilight
Nautical Twilight
Astronomical Twilight
Moon
Length of Visible Light
Length of Day
Tomorrow will be .
, % of the Moon is Illuminated

Today's Extremes

State Highs State Lows

Community

WunderPhotos

Upload Photos

1,774,117 photos uploaded!

WunderBlogs® & News

Nearby

Air Quality

  Air Quality AQ Index Pollutant
Not available.

Snow Depth

Station Depth Elevation

Earthquake Activity

City Distance Mag. Time & Date
Minimum magnitude displayed is 2.5.

Coastal Water Temperatures

Place Temperature

Nearby Weather Stations